Time;durP1;ratioP1;P1;durP2;ratioP2;P2;SDS_P1;SDS_P2;PMS_P1;PMS_P2;Temp;Humidity;BMP_temperature;BMP_pressure;BME280_temperature;BME280_humidity;BME280_pressure;Samples;Min_cycle;Max_cycle;Signal;HPM_P1;HPM_P2
2021/01/13 00:01:11;;;;;;;5.10;3.60;;;;;;;4.28;85.85;99636.19;5034128;28;20043;-70
2021/01/13 00:03:37;;;;;;;4.22;3.10;;;;;;;4.36;85.24;99645.09;5034186;28;20049;-72
2021/01/13 00:06:02;;;;;;;4.95;3.35;;;;;;;4.34;84.95;99647.56;5033680;28;20034;-69
2021/01/13 00:08:28;;;;;;;4.40;3.13;;;;;;;4.34;84.93;99649.25;5034013;28;20025;-75
2021/01/13 00:10:53;;;;;;;4.70;3.40;;;;;;;4.35;84.04;99648.47;5034047;28;20034;-72
2021/01/13 00:13:19;;;;;;;5.47;3.10;;;;;;;4.33;83.92;99666.25;5034487;28;20033;-72
2021/01/13 00:15:44;;;;;;;5.45;3.45;;;;;;;4.25;84.22;99672.69;5034091;28;20029;-73
2021/01/13 00:18:11;;;;;;;5.10;3.60;;;;;;;4.02;83.40;99638.34;5015927;28;20073;-73
2021/01/13 00:20:37;;;;;;;5.68;4.10;;;;;;;4.01;83.66;99640.03;5033434;28;20025;-74
2021/01/13 00:23:02;;;;;;;5.63;3.75;;;;;;;4.09;84.70;99645.50;5034149;28;20407;-73
2021/01/13 00:25:28;;;;;;;6.10;3.78;;;;;;;4.34;84.45;99683.34;5033864;28;20093;-71
2021/01/13 00:27:54;;;;;;;6.68;3.42;;;;;;;4.33;83.66;99681.59;5016117;28;20030;-73
2021/01/13 00:30:20;;;;;;;7.13;3.33;;;;;;;4.21;82.39;99658.00;5033296;28;20112;-73
2021/01/13 00:32:45;;;;;;;4.63;3.85;;;;;;;4.42;83.79;99681.16;5033491;28;20384;-72
2021/01/13 00:35:13;;;;;;;6.15;4.40;;;;;;;4.43;83.15;99682.91;5032609;28;20038;-74
2021/01/13 00:37:39;;;;;;;5.28;3.45;;;;;;;4.47;81.57;99687.38;5033281;28;20499;-75
2021/01/13 00:40:06;;;;;;;6.22;4.00;;;;;;;4.51;81.96;99684.19;5033575;28;20726;-75
2021/01/13 00:42:32;;;;;;;6.93;3.55;;;;;;;4.50;82.52;99689.22;5032520;28;20080;-74
2021/01/13 00:44:57;;;;;;;5.53;3.88;;;;;;;4.51;82.70;99679.06;5033437;28;20443;-74
2021/01/13 00:47:22;;;;;;;6.30;3.60;;;;;;;4.36;81.76;99652.75;5032987;28;20022;-71
2021/01/13 00:49:48;;;;;;;3.75;2.72;;;;;;;4.16;81.19;99678.22;5032501;28;20068;-71
2021/01/13 00:52:13;;;;;;;5.43;2.67;;;;;;;3.92;81.73;99671.88;5032746;28;20064;-72
2021/01/13 00:54:39;;;;;;;5.90;2.90;;;;;;;3.75;83.42;99669.34;5032971;28;20059;-74
2021/01/13 00:57:06;;;;;;;4.35;3.05;;;;;;;3.85;84.02;99678.34;5033145;28;20029;-74
2021/01/13 00:59:32;;;;;;;6.05;2.50;;;;;;;3.37;84.42;99624.84;5032840;28;20033;-74
2021/01/13 01:01:57;;;;;;;3.65;2.40;;;;;;;3.66;84.09;99672.28;5032932;28;20021;-71
2021/01/13 01:04:23;;;;;;;4.35;2.58;;;;;;;3.24;83.86;99624.22;5032571;28;20455;-71
2021/01/13 01:07:08;;;;;;;3.00;1.90;;;;;;;3.39;83.39;99656.44;5030392;28;20037;-70
2021/01/13 01:09:33;;;;;;;2.85;1.85;;;;;;;3.49;83.53;99668.88;4997273;28;20060;-72
2021/01/13 01:11:59;;;;;;;3.55;2.60;;;;;;;3.49;83.18;99668.88;5030034;28;20087;-72
2021/01/13 01:14:24;;;;;;;4.15;2.13;;;;;;;3.43;84.77;99657.44;5030591;28;20030;-71
2021/01/13 01:16:50;;;;;;;2.92;2.10;;;;;;;3.54;85.20;99653.81;5030095;28;20053;-70
2021/01/13 01:19:15;;;;;;;3.33;2.30;;;;;;;3.49;84.76;99639.91;5030669;28;20053;-76
2021/01/13 01:21:42;;;;;;;2.97;2.13;;;;;;;3.57;84.73;99656.50;5030432;28;20041;-77
2021/01/13 01:24:08;;;;;;;3.17;2.30;;;;;;;3.62;85.42;99656.75;5030062;28;20025;-74
2021/01/13 01:26:50;;;;;;;2.65;2.00;;;;;;;3.60;84.30;99651.56;5030338;28;20053;-75
2021/01/13 01:29:15;;;;;;;3.13;2.20;;;;;;;3.65;84.07;99660.34;5029727;28;20022;-73
2021/01/13 01:31:41;;;;;;;5.50;2.50;;;;;;;3.32;83.98;99609.28;5030384;28;20045;-73
2021/01/13 01:34:06;;;;;;;3.00;2.13;;;;;;;3.65;83.32;99641.56;5030160;28;20090;-74
2021/01/13 01:36:33;;;;;;;10.82;3.83;;;;;;;3.77;83.58;99649.88;5029989;28;20106;-71
2021/01/13 01:38:58;;;;;;;8.43;3.50;;;;;;;3.83;83.35;99647.63;5032025;28;20088;-74
2021/01/13 01:41:24;;;;;;;7.38;3.40;;;;;;;3.65;82.43;99624.59;5032102;28;20083;-74
2021/01/13 01:43:49;;;;;;;4.28;2.50;;;;;;;3.76;82.59;99657.44;5032341;28;20021;-72
2021/01/13 01:46:16;;;;;;;4.20;2.47;;;;;;;3.47;84.24;99652.59;5031966;28;20123;-71
2021/01/13 01:49:00;;;;;;;6.43;2.80;;;;;;;3.51;84.39;99654.50;5032435;28;20060;-72
2021/01/13 01:51:32;;;;;;;4.45;2.47;;;;;;;3.61;84.94;99650.75;5031588;28;20546;-73
2021/01/13 01:54:15;;;;;;;5.80;2.55;;;;;;;3.63;82.88;99643.19;5031387;28;20037;-72
2021/01/13 01:56:42;;;;;;;3.47;2.25;;;;;;;3.70;82.96;99641.03;5031627;28;20022;-70
2021/01/13 01:59:13;;;;;;;3.33;2.25;;;;;;;3.91;83.08;99660.78;5032046;28;20472;-73
2021/01/13 02:01:43;;;;;;;3.67;2.20;;;;;;;4.02;82.68;99666.44;5031873;28;20030;-73
2021/01/13 02:04:30;;;;;;;3.33;2.30;;;;;;;3.97;82.66;99671.28;5031732;28;20462;-72
2021/01/13 02:06:59;;;;;;;4.90;2.72;;;;;;;3.94;81.32;99673.72;5031277;28;20026;-72
2021/01/13 02:09:28;;;;;;;2.75;1.90;;;;;;;3.81;81.59;99666.22;5031431;28;20056;-71
2021/01/13 02:11:56;;;;;;;5.00;2.67;;;;;;;3.69;80.63;99663.94;5031758;28;20061;-70
2021/01/13 02:14:22;;;;;;;5.80;5.10;;;;;;;3.58;80.93;99650.59;5031567;28;20074;-72
2021/01/13 02:16:56;;;;;;;3.55;1.80;;;;;;;3.56;80.29;99657.28;5031719;28;20037;-72
2021/01/13 02:19:46;;;;;;;2.38;1.55;;;;;;;3.56;79.56;99657.28;5031186;28;20048;-72
2021/01/13 02:22:18;;;;;;;1.75;1.35;;;;;;;3.60;79.88;99664.34;5031311;28;20025;-70
2021/01/13 02:25:12;;;;;;;2.28;1.80;;;;;;;3.65;80.60;99670.56;5009172;28;20499;-72
2021/01/13 02:27:59;;;;;;;4.88;2.42;;;;;;;3.69;80.17;99676.69;5024432;28;20087;-70
2021/01/13 02:30:29;;;;;;;5.03;2.97;;;;;;;3.56;79.79;99678.63;5031193;28;20041;-72
2021/01/13 02:32:59;;;;;;;4.32;2.42;;;;;;;3.54;81.67;99676.78;5031283;28;20029;-73
2021/01/13 02:35:27;;;;;;;3.08;2.00;;;;;;;3.67;80.87;99681.69;5031547;28;20033;-73
2021/01/13 02:38:12;;;;;;;2.83;2.00;;;;;;;3.51;81.04;99640.88;5030994;28;20526;-72
2021/01/13 02:40:47;;;;;;;3.22;1.95;;;;;;;3.86;81.32;99682.66;5022704;28;20033;-71
2021/01/13 02:43:14;;;;;;;3.55;1.80;;;;;;;3.91;79.64;99683.75;5030903;28;20035;-72
2021/01/13 02:45:43;;;;;;;3.08;2.10;;;;;;;3.96;78.84;99678.88;5030920;28;20446;-69
2021/01/13 02:48:10;;;;;;;3.15;2.70;;;;;;;4.00;79.22;99671.47;5031416;28;20025;-74
2021/01/13 02:50:37;;;;;;;4.13;2.90;;;;;;;4.08;79.54;99676.94;5030730;28;20068;-75
2021/01/13 02:53:14;;;;;;;4.97;2.50;;;;;;;3.74;79.00;99652.28;5031169;28;20092;-74
2021/01/13 02:56:26;;;;;;;3.92;2.53;;;;;;;3.95;79.12;99687.34;5031530;28;20021;-74
2021/01/13 02:59:07;;;;;;;4.35;2.50;;;;;;;3.80;79.87;99665.34;5027969;28;20057;-76
2021/01/13 03:01:38;;;;;;;3.90;2.30;;;;;;;3.86;80.96;99682.66;5031167;28;20026;-74
2021/01/13 03:04:04;;;;;;;4.20;2.67;;;;;;;3.79;80.74;99675.47;5031176;28;20095;-78
2021/01/13 03:06:34;;;;;;;5.00;2.85;;;;;;;3.66;81.93;99679.94;5030470;28;20017;-74
2021/01/13 03:09:10;;;;;;;5.32;3.08;;;;;;;3.76;82.70;99681.28;5029641;28;20053;-72
2021/01/13 03:11:37;;;;;;;4.45;2.58;;;;;;;3.63;81.65;99684.03;5017146;28;20422;-74
2021/01/13 03:14:26;;;;;;;5.60;2.60;;;;;;;3.48;82.53;99679.88;5023119;28;20080;-71
2021/01/13 03:17:21;;;;;;;4.13;2.70;;;;;;;3.53;81.61;99683.53;5023608;28;20049;-74
2021/01/13 03:20:20;;;;;;;6.07;2.83;;;;;;;3.60;82.35;99679.66;5018718;28;20033;-73
2021/01/13 03:23:13;;;;;;;3.83;2.60;;;;;;;3.68;81.38;99674.94;5018266;28;20022;-70
2021/01/13 03:26:01;;;;;;;3.85;2.88;;;;;;;3.84;81.48;99676.59;4950352;29;20039;-72
2021/01/13 03:28:30;;;;;;;5.88;3.72;;;;;;;3.91;81.77;99675.22;4950816;29;20118;-71
2021/01/13 03:30:58;;;;;;;5.47;3.80;;;;;;;4.03;81.01;99683.50;4950573;29;20043;-71
2021/01/13 03:33:23;;;;;;;3.75;2.95;;;;;;;4.09;81.29;99682.91;4950706;29;20036;-73
2021/01/13 03:36:00;;;;;;;4.05;3.28;;;;;;;4.13;80.74;99685.72;4946927;29;20030;-70
2021/01/13 03:38:30;;;;;;;4.40;3.08;;;;;;;4.05;80.34;99682.78;4931651;29;20187;-78
2021/01/13 03:41:06;;;;;;;;;;;;;;;4.05;80.48;99687.03;4950981;29;20051;-77
2021/01/13 03:43:36;;;;;;;5.03;2.88;;;;;;;4.05;80.70;99690.44;4946058;29;20376;-75
2021/01/13 03:46:07;;;;;;;4.43;2.85;;;;;;;4.08;80.98;99676.94;4948759;29;20035;-74
2021/01/13 03:48:50;;;;;;;3.95;2.72;;;;;;;4.08;80.83;99691.41;4950386;29;20501;-74
2021/01/13 03:51:46;;;;;;;3.13;2.40;;;;;;;4.09;80.66;99693.13;4950501;29;20050;-76
2021/01/13 03:54:12;;;;;;;4.22;2.67;;;;;;;4.14;80.61;99699.38;4950219;29;20039;-72
2021/01/13 03:57:00;;;;;;;4.13;2.78;;;;;;;4.19;80.58;99692.81;4948422;29;20031;-75
2021/01/13 04:00:08;;;;;;;3.35;2.70;;;;;;;4.17;80.48;99692.72;4947710;29;20038;-75
2021/01/13 04:02:51;;;;;;;4.53;2.78;;;;;;;4.03;80.75;99686.06;4941362;28;20433;-75
2021/01/13 04:05:29;;;;;;;4.60;2.60;;;;;;;3.84;81.30;99661.28;4980977;28;20461;-75
2021/01/13 04:07:55;;;;;;;3.17;2.50;;;;;;;3.97;81.80;99694.28;4975081;28;20073;-76
2021/01/13 04:10:21;;;;;;;4.72;3.00;;;;;;;4.05;81.42;99690.44;4988901;28;20129;-72
2021/01/13 04:13:28;;;;;;;4.32;3.10;;;;;;;4.10;80.73;99695.78;4974595;28;20651;-73
2021/01/13 04:15:59;;;;;;;4.30;2.80;;;;;;;3.97;80.32;99691.72;4949704;29;20069;-73
2021/01/13 04:18:24;;;;;;;4.38;2.83;;;;;;;4.00;80.60;99691.91;4951222;28;20051;-72
2021/01/13 04:20:50;;;;;;;3.92;2.70;;;;;;;3.67;81.13;99635.75;4953565;29;20118;-77
2021/01/13 04:23:16;;;;;;;4.50;3.05;;;;;;;4.08;81.59;99699.06;4953182;29;20482;-77
2021/01/13 04:25:41;;;;;;;3.30;2.55;;;;;;;4.13;81.42;99702.75;4937398;29;20078;-77
2021/01/13 04:28:07;;;;;;;4.38;2.80;;;;;;;4.15;81.62;99696.00;4953837;29;20062;-76
2021/01/13 04:30:33;;;;;;;4.38;3.28;;;;;;;4.26;81.51;99705.09;4953132;29;20035;-78
2021/01/13 04:32:59;;;;;;;5.32;3.33;;;;;;;4.32;81.43;99705.38;4953146;29;20036;-77
2021/01/13 04:35:25;;;;;;;4.70;3.30;;;;;;;4.37;81.44;99718.41;4953264;29;20489;-71
2021/01/13 04:37:53;;;;;;;4.43;3.17;;;;;;;4.32;80.82;99700.28;4953203;29;20038;-74
2021/01/13 04:40:37;;;;;;;4.50;2.90;;;;;;;4.38;80.64;99715.91;4953135;29;20071;-75
2021/01/13 04:43:08;;;;;;;3.50;2.60;;;;;;;4.33;80.49;99712.25;4952693;29;20043;-74
2021/01/13 04:45:39;;;;;;;5.00;2.50;;;;;;;4.33;80.80;99709.69;4953057;29;20043;-78
2021/01/13 04:48:08;;;;;;;5.20;2.60;;;;;;;4.28;81.37;99702.63;4953136;29;20054;-78
2021/01/13 04:50:45;;;;;;;8.35;5.68;;;;;;;4.06;81.28;99683.66;4949919;29;20032;-73
2021/01/13 04:53:20;;;;;;;22.75;18.88;;;;;;;4.18;81.31;99714.06;4999192;28;20038;-71
2021/01/13 04:55:50;;;;;;;35.92;32.08;;;;;;;4.24;81.81;99726.25;5031533;28;20061;-71
2021/01/13 04:58:53;;;;;;;8.48;7.15;;;;;;;4.20;81.72;99732.91;5033653;28;20029;-75
2021/01/13 05:01:56;;;;;;;5.15;4.20;;;;;;;4.13;81.85;99721.47;5019590;28;20447;-76
2021/01/13 05:04:28;;;;;;;7.80;6.53;;;;;;;4.05;81.99;99730.44;5033269;28;20029;-75
2021/01/13 05:07:13;;;;;;;9.57;8.60;;;;;;;4.05;82.40;99722.78;5031356;28;20033;-74
2021/01/13 05:10:01;;;;;;;9.48;8.30;;;;;;;4.02;82.95;99727.72;5031460;28;20041;-74
2021/01/13 05:12:44;;;;;;;12.13;9.00;;;;;;;3.98;83.35;99718.16;4971660;28;20066;-71
2021/01/13 05:15:16;;;;;;;12.75;9.65;;;;;;;3.91;84.29;99726.31;4967799;28;20046;-71
2021/01/13 05:18:05;;;;;;;16.60;10.52;;;;;;;3.69;83.71;99689.47;4968545;28;20089;-70
2021/01/13 05:20:41;;;;;;;13.90;9.98;;;;;;;3.72;84.90;99725.34;4969393;28;20031;-70
2021/01/13 05:23:09;;;;;;;17.00;11.93;;;;;;;3.60;85.37;99727.25;4969674;28;20078;-70
2021/01/13 05:25:46;;;;;;;16.85;11.27;;;;;;;3.42;84.53;99724.63;4966887;28;20035;-71
2021/01/13 05:28:19;;;;;;;17.60;11.90;;;;;;;3.29;85.37;99729.06;4971166;28;20085;-71
2021/01/13 05:30:47;;;;;;;17.30;12.65;;;;;;;3.05;85.25;99688.69;4971474;28;20030;-69
2021/01/13 05:33:18;;;;;;;18.48;12.95;;;;;;;3.25;84.98;99737.31;4971245;28;20121;-68
2021/01/13 05:35:47;;;;;;;17.38;11.80;;;;;;;3.10;84.83;99737.34;4971427;28;20516;-71
2021/01/13 05:38:38;;;;;;;17.58;12.32;;;;;;;3.09;84.81;99735.63;4971095;28;20489;-68
2021/01/13 05:41:13;;;;;;;19.05;12.98;;;;;;;3.05;85.55;99733.69;4880087;29;20033;-74
2021/01/13 05:43:46;;;;;;;20.55;13.20;;;;;;;3.05;85.32;99737.13;4890471;29;20044;-75
2021/01/13 05:46:15;;;;;;;16.63;11.20;;;;;;;3.08;85.04;99739.84;4878215;29;20056;-69
2021/01/13 05:48:41;;;;;;;18.13;12.83;;;;;;;2.97;84.94;99738.38;4886422;29;20169;-68
2021/01/13 05:51:07;;;;;;;15.95;12.02;;;;;;;3.00;85.00;99746.16;4931998;29;20094;-73
2021/01/13 05:53:33;;;;;;;20.60;13.70;;;;;;;2.84;85.71;99731.72;4932709;29;20083;-74
2021/01/13 05:56:02;;;;;;;19.45;13.35;;;;;;;2.72;86.27;99729.34;4932542;29;20077;-78
2021/01/13 05:58:28;;;;;;;19.08;12.55;;;;;;;2.75;85.51;99756.66;4931642;29;20039;-75
2021/01/13 06:00:56;;;;;;;18.67;13.05;;;;;;;2.73;86.59;99763.38;4928613;29;20047;-74
2021/01/13 06:03:25;;;;;;;17.65;12.30;;;;;;;2.71;86.60;99754.75;4925139;29;20042;-74
2021/01/13 06:05:53;;;;;;;21.00;14.53;;;;;;;2.63;86.36;99727.94;4916143;29;20123;-76
2021/01/13 06:08:21;;;;;;;17.80;13.02;;;;;;;2.73;85.83;99766.78;4926240;29;20072;-75
2021/01/13 06:10:49;;;;;;;17.73;11.57;;;;;;;2.51;85.93;99767.22;4927345;29;20429;-72
2021/01/13 06:13:18;;;;;;;18.35;11.88;;;;;;;2.62;86.13;99772.03;4930190;29;20123;-73
2021/01/13 06:15:45;;;;;;;19.30;12.05;;;;;;;2.51;86.79;99768.91;4932231;29;20164;-75
2021/01/13 06:18:14;;;;;;;20.95;13.02;;;;;;;2.61;86.54;99776.28;4977857;28;20111;-76
2021/01/13 06:20:41;;;;;;;19.58;13.18;;;;;;;2.73;86.83;99773.56;5031337;28;20543;-77
2021/01/13 06:23:08;;;;;;;21.23;14.57;;;;;;;2.85;86.16;99781.00;5031486;28;20029;-75
2021/01/13 06:25:35;;;;;;;23.67;14.63;;;;;;;2.87;85.89;99771.78;5031563;28;20013;-76
2021/01/13 06:28:03;;;;;;;21.73;13.18;;;;;;;2.89;85.67;99785.47;5031708;28;20120;-77
2021/01/13 06:30:30;;;;;;;18.38;12.90;;;;;;;2.84;85.41;99789.44;5031169;28;20095;-75
2021/01/13 06:33:02;;;;;;;17.17;11.70;;;;;;;2.76;85.62;99786.47;5031373;28;20568;-77
2021/01/13 06:36:06;;;;;;;17.95;12.55;;;;;;;2.81;86.61;99792.69;5031442;28;20082;-76
2021/01/13 06:38:42;;;;;;;16.70;11.73;;;;;;;2.72;85.55;99759.94;5031595;28;20510;-75
2021/01/13 06:41:10;;;;;;;18.83;12.52;;;;;;;2.80;86.44;99790.94;5030415;28;20025;-76
2021/01/13 06:43:35;;;;;;;20.80;13.30;;;;;;;2.77;86.95;99793.34;5024500;28;20427;-72
2021/01/13 06:46:01;;;;;;;19.90;14.68;;;;;;;2.79;87.64;99791.75;5030747;28;20031;-75
2021/01/13 06:48:28;;;;;;;17.75;11.70;;;;;;;2.72;87.49;99785.41;5031290;28;20553;-72
2021/01/13 06:50:58;;;;;;;18.45;11.45;;;;;;;2.87;86.76;99795.59;5031316;28;20029;-74
2021/01/13 06:53:34;;;;;;;19.05;12.50;;;;;;;2.78;87.79;99789.09;5027649;28;20091;-76
2021/01/13 06:56:12;;;;;;;19.73;13.35;;;;;;;2.57;88.10;99775.22;5029352;28;20053;-74
2021/01/13 06:58:38;;;;;;;21.92;14.02;;;;;;;2.39;88.68;99762.31;5030988;28;20029;-75
2021/01/13 07:01:05;;;;;;;20.87;13.53;;;;;;;2.63;89.15;99819.69;5030794;28;20099;-75
2021/01/13 07:03:32;;;;;;;21.25;14.40;;;;;;;2.50;88.92;99796.03;5012634;28;20065;-74
2021/01/13 07:06:02;;;;;;;20.08;12.00;;;;;;;2.58;88.13;99801.59;5031397;28;20068;-75
2021/01/13 07:08:28;;;;;;;19.05;11.80;;;;;;;2.55;88.28;99809.06;5031220;28;20057;-73
2021/01/13 07:11:10;;;;;;;18.43;12.43;;;;;;;2.65;89.18;99813.00;5030773;28;20475;-74
2021/01/13 07:13:40;;;;;;;17.48;11.05;;;;;;;2.62;88.01;99808.63;5031232;28;20034;-72
2021/01/13 07:16:07;;;;;;;18.80;12.45;;;;;;;2.71;87.98;99813.38;5030828;28;20427;-78
2021/01/13 07:18:34;;;;;;;18.77;12.07;;;;;;;2.76;87.17;99806.88;5013436;28;20403;-75
2021/01/13 07:21:07;;;;;;;17.10;11.93;;;;;;;2.66;86.13;99815.66;5027594;28;20099;-75
2021/01/13 07:23:33;;;;;;;24.13;15.53;;;;;;;2.57;86.84;99812.56;5031286;28;20079;-74
2021/01/13 07:25:59;;;;;;;22.48;14.82;;;;;;;2.63;86.76;99806.94;5027321;28;20033;-75
2021/01/13 07:28:25;;;;;;;21.45;14.48;;;;;;;2.74;86.25;99818.63;5030811;28;20491;-76
2021/01/13 07:30:53;;;;;;;18.07;12.00;;;;;;;2.74;85.60;99826.28;5030746;28;20021;-73
2021/01/13 07:33:19;;;;;;;17.33;10.95;;;;;;;2.71;86.87;99816.78;5030506;28;20522;-76
2021/01/13 07:35:47;;;;;;;19.45;12.15;;;;;;;2.69;86.26;99831.13;5030790;28;20113;-75
2021/01/13 07:38:22;;;;;;;19.38;13.02;;;;;;;2.75;86.56;99828.03;5016942;28;20021;-73
2021/01/13 07:41:07;;;;;;;18.90;11.10;;;;;;;2.66;86.28;99814.78;5030808;28;20124;-75
2021/01/13 07:43:51;;;;;;;15.55;11.25;;;;;;;2.66;86.45;99799.50;5030670;28;20400;-76
2021/01/13 07:46:30;;;;;;;26.50;18.38;;;;;;;2.87;86.21;99815.13;5030563;28;20112;-76
2021/01/13 07:48:56;;;;;;;20.40;13.18;;;;;;;3.15;84.16;99826.88;5030918;28;20039;-86
2021/01/13 07:51:32;;;;;;;16.70;10.75;;;;;;;3.14;82.09;99810.72;5013190;28;20490;-80
2021/01/13 07:54:06;;;;;;;18.20;12.15;;;;;;;2.92;83.47;99776.34;5016951;28;20026;-76
2021/01/13 07:56:36;;;;;;;17.67;10.88;;;;;;;3.30;81.74;99821.75;5016599;28;20404;-78
2021/01/13 07:59:20;;;;;;;;;;;;;;;3.40;84.12;99824.91;5016815;28;20113;-80
2021/01/13 08:02:03;;;;;;;14.65;9.15;;;;;;;3.50;82.27;99818.66;5034144;28;19920;-88
2021/01/13 08:04:47;;;;;;;14.55;8.52;;;;;;;3.32;81.36;99823.59;5016546;28;20028;-88
2021/01/13 08:07:16;;;;;;;14.80;8.98;;;;;;;3.33;81.54;99819.41;5002720;28;20472;-90
2021/01/13 08:09:50;;;;;;;17.05;9.27;;;;;;;3.52;80.91;99828.94;5010378;28;20029;-86
2021/01/13 08:12:46;;;;;;;15.00;8.60;;;;;;;3.66;80.96;99838.19;5033993;28;20084;-71
2021/01/13 08:15:29;;;;;;;13.48;8.70;;;;;;;3.85;80.82;99839.19;5032856;28;20037;-72
2021/01/13 08:18:09;;;;;;;11.82;7.85;;;;;;;3.89;79.31;99842.00;5033847;28;20060;-70
2021/01/13 08:20:58;;;;;;;11.60;8.52;;;;;;;4.14;79.18;99833.09;5033579;28;20021;-73
2021/01/13 08:23:47;;;;;;;9.95;6.10;;;;;;;4.05;77.88;99824.97;5034069;28;20026;-73
2021/01/13 08:26:14;;;;;;;8.52;4.70;;;;;;;3.85;76.42;99788.13;5033546;28;20057;-72
2021/01/13 08:28:42;;;;;;;7.30;4.70;;;;;;;3.89;75.01;99836.91;5033913;28;20104;-73
2021/01/13 08:31:08;;;;;;;8.00;5.40;;;;;;;4.03;76.30;99835.06;5033753;28;20027;-71
2021/01/13 08:33:39;;;;;;;9.48;6.43;;;;;;;4.28;76.78;99838.03;5033612;28;20384;-71
2021/01/13 08:36:13;;;;;;;8.70;5.70;;;;;;;4.22;76.02;99846.25;5015660;28;20026;-76
2021/01/13 08:39:04;;;;;;;8.43;5.25;;;;;;;4.47;77.23;99845.84;5015699;28;20029;-71
2021/01/13 08:41:30;;;;;;;10.15;7.03;;;;;;;4.49;75.42;99833.16;5033355;28;20025;-71
2021/01/13 08:44:10;;;;;;;8.40;4.80;;;;;;;4.22;74.30;99833.47;5033127;28;20461;-71
2021/01/13 08:46:47;;;;;;;5.20;4.20;;;;;;;4.13;72.45;99840.69;5033143;28;20131;-72
2021/01/13 08:49:27;;;;;;;5.85;3.50;;;;;;;4.00;73.28;99834.91;5033506;28;20041;-75
2021/01/13 08:52:10;;;;;;;10.93;9.77;;;;;;;4.02;73.53;99806.91;5033028;28;20495;-74
2021/01/13 08:54:36;;;;;;;5.07;3.05;;;;;;;4.15;70.75;99852.72;5015930;28;20072;-76
2021/01/13 08:57:03;;;;;;;5.15;3.45;;;;;;;4.16;72.15;99844.28;5032390;28;20061;-71
2021/01/13 08:59:44;;;;;;;8.48;4.68;;;;;;;4.30;75.02;99850.09;5032706;28;20119;-74
2021/01/13 09:02:14;;;;;;;10.45;5.80;;;;;;;4.60;73.32;99843.91;5032925;28;20025;-73
2021/01/13 09:04:59;;;;;;;7.35;4.65;;;;;;;4.74;71.77;99842.06;5028429;28;20025;-72
2021/01/13 09:07:26;;;;;;;5.78;3.65;;;;;;;4.91;71.84;99846.34;5029409;28;20026;-73
2021/01/13 09:09:59;;;;;;;4.80;2.92;;;;;;;4.97;68.90;99838.97;5032845;28;20044;-74
2021/01/13 09:12:45;;;;;;;5.15;3.60;;;;;;;4.84;70.36;99828.94;5029057;28;20025;-72
2021/01/13 09:15:33;;;;;;;7.78;3.80;;;;;;;4.91;72.30;99819.88;5032774;28;20053;-71
2021/01/13 09:17:59;;;;;;;4.05;2.65;;;;;;;4.91;68.08;99825.88;5032134;28;20057;-71
2021/01/13 09:20:30;;;;;;;4.40;2.42;;;;;;;4.99;69.16;99823.69;5032531;28;20041;-75
2021/01/13 09:23:22;;;;;;;4.07;2.55;;;;;;;5.11;67.20;99823.41;5032875;28;20076;-76
2021/01/13 09:25:55;;;;;;;4.72;3.00;;;;;;;5.24;70.47;99827.44;5030653;28;20033;-77
2021/01/13 09:28:20;;;;;;;4.88;3.30;;;;;;;5.39;69.96;99825.59;5032886;28;20108;-74
2021/01/13 09:30:46;;;;;;;4.10;2.40;;;;;;;5.44;69.75;99833.50;5032204;28;20634;-77
2021/01/13 09:33:17;;;;;;;4.90;2.92;;;;;;;5.47;71.21;99816.63;5032409;28;20033;-75
2021/01/13 09:35:44;;;;;;;4.32;2.40;;;;;;;5.45;67.87;99830.16;5018813;28;20037;-72
2021/01/13 09:38:13;;;;;;;3.72;2.35;;;;;;;5.49;67.00;99817.53;5018696;28;20033;-72
2021/01/13 09:41:02;;;;;;;4.50;2.50;;;;;;;5.54;66.63;99827.13;5014199;28;20432;-72
2021/01/13 09:43:33;;;;;;;5.95;2.60;;;;;;;5.25;66.41;99824.09;5023086;28;20092;-70
2021/01/13 09:46:02;;;;;;;4.45;2.72;;;;;;;5.14;68.46;99811.63;5014066;28;20476;-71
2021/01/13 09:48:29;;;;;;;5.38;3.22;;;;;;;5.33;69.48;99827.88;5012523;28;20017;-76
2021/01/13 09:51:07;;;;;;;4.03;2.53;;;;;;;5.33;67.94;99823.66;5012162;28;20037;-74
2021/01/13 09:53:46;;;;;;;4.90;2.72;;;;;;;5.37;68.54;99818.66;4999918;28;20040;-71
2021/01/13 09:56:12;;;;;;;4.63;2.60;;;;;;;5.42;67.77;99814.63;5018641;28;20025;-72
2021/01/13 09:58:42;;;;;;;5.85;3.65;;;;;;;5.57;68.43;99807.69;5014017;28;20026;-74
2021/01/13 10:01:10;;;;;;;5.57;3.35;;;;;;;5.49;68.37;99775.72;5013438;28;20471;-74
2021/01/13 10:03:36;;;;;;;11.73;6.57;;;;;;;5.53;68.80;99769.91;5013351;28;20477;-73
2021/01/13 10:06:03;;;;;;;6.47;3.60;;;;;;;5.48;66.92;99769.72;5016751;28;20029;-74
2021/01/13 10:08:30;;;;;;;4.10;2.60;;;;;;;5.59;65.49;99775.31;5012537;28;20030;-73
2021/01/13 10:10:57;;;;;;;5.13;3.17;;;;;;;5.47;66.53;99774.75;4996660;28;20045;-71
2021/01/13 10:13:23;;;;;;;6.03;4.03;;;;;;;5.49;67.41;99781.69;5013378;28;20179;-76
2021/01/13 10:15:50;;;;;;;6.22;3.50;;;;;;;5.76;66.86;99780.34;5031948;28;20064;-74
2021/01/13 10:18:15;;;;;;;7.43;4.35;;;;;;;5.98;66.08;99767.72;5031878;28;20064;-75
2021/01/13 10:20:41;;;;;;;7.85;5.00;;;;;;;6.10;68.71;99740.88;5031213;28;20033;-74
2021/01/13 10:23:07;;;;;;;4.82;2.97;;;;;;;5.97;67.37;99753.13;5032487;28;20030;-74
2021/01/13 10:25:33;;;;;;;4.93;2.88;;;;;;;5.81;64.87;99748.13;5031608;28;20480;-72
2021/01/13 10:28:01;;;;;;;4.97;2.70;;;;;;;6.07;63.68;99746.75;5025835;28;20033;-74
2021/01/13 10:30:27;;;;;;;5.20;3.20;;;;;;;6.20;64.69;99722.50;5012770;28;20523;-74
2021/01/13 10:32:55;;;;;;;10.60;7.20;;;;;;;6.56;65.78;99742.81;5025692;28;20398;-74
2021/01/13 10:35:24;;;;;;;5.43;3.30;;;;;;;6.71;66.14;99746.81;5014446;28;20025;-79
2021/01/13 10:37:57;;;;;;;4.90;2.80;;;;;;;6.67;64.31;99742.34;5013651;28;20034;-75
2021/01/13 10:40:24;;;;;;;5.05;3.17;;;;;;;6.68;64.71;99741.53;4994351;28;20025;-75
2021/01/13 10:42:52;;;;;;;4.65;3.03;;;;;;;6.88;66.64;99732.09;5011788;28;20037;-72
2021/01/13 10:45:19;;;;;;;8.85;5.05;;;;;;;6.55;66.46;99735.91;4996110;28;20404;-75
2021/01/13 10:47:59;;;;;;;8.80;4.53;;;;;;;6.34;68.35;99727.34;5015259;28;20028;-75
2021/01/13 10:50:27;;;;;;;6.35;4.40;;;;;;;6.24;67.23;99726.97;5021948;28;20511;-71
2021/01/13 10:52:55;;;;;;;8.35;4.70;;;;;;;6.48;66.43;99727.09;5014716;28;20555;-71
2021/01/13 10:55:23;;;;;;;6.18;4.10;;;;;;;6.56;64.79;99724.00;5011928;28;20022;-75
2021/01/13 10:57:50;;;;;;;8.32;4.30;;;;;;;6.64;65.97;99715.78;5009930;28;20120;-75
2021/01/13 11:00:17;;;;;;;7.68;5.65;;;;;;;6.44;63.96;99720.09;5010445;28;20030;-74
2021/01/13 11:02:57;;;;;;;6.40;3.80;;;;;;;6.30;65.89;99721.22;4996030;28;20121;-72
2021/01/13 11:05:24;;;;;;;5.93;3.00;;;;;;;6.24;63.86;99723.50;5024521;28;20026;-72
2021/01/13 11:07:51;;;;;;;4.95;2.97;;;;;;;6.37;63.20;99719.75;5012361;28;20137;-72
2021/01/13 11:10:22;;;;;;;4.43;2.70;;;;;;;6.45;62.89;99715.84;5013808;28;20022;-74
2021/01/13 11:13:04;;;;;;;6.55;4.35;;;;;;;6.80;64.41;99717.28;5011317;28;20532;-75
2021/01/13 11:15:30;;;;;;;9.55;4.72;;;;;;;7.01;63.54;99716.38;5023949;28;20493;-74
2021/01/13 11:17:58;;;;;;;9.07;5.20;;;;;;;7.08;62.36;99712.38;5019295;28;20084;-71
2021/01/13 11:20:29;;;;;;;9.20;4.68;;;;;;;7.09;62.82;99704.72;5018328;28;20022;-74
2021/01/13 11:23:01;;;;;;;8.48;3.63;;;;;;;6.76;62.00;99688.88;5021604;28;20034;-72
2021/01/13 11:25:41;;;;;;;6.00;3.10;;;;;;;7.15;60.49;99709.19;5006424;28;20514;-75
2021/01/13 11:28:11;;;;;;;;;;;;;;;7.34;61.24;99695.38;5025330;28;20033;-76
2021/01/13 11:30:37;;;;;;;;;;;;;;;7.40;62.72;99692.16;5030103;28;19956;-73
2021/01/13 11:33:05;;;;;;;7.55;3.33;;;;;;;7.46;61.01;99689.81;5034623;28;19920;-74
2021/01/13 11:35:50;;;;;;;6.57;3.90;;;;;;;7.52;61.39;99681.47;5037266;28;20028;-76
2021/01/13 11:38:58;;;;;;;5.07;2.85;;;;;;;7.20;61.71;99701.69;5046674;28;20510;-74
2021/01/13 11:41:24;;;;;;;5.10;3.40;;;;;;;7.16;61.91;99704.94;5034148;28;20040;-74
2021/01/13 11:44:28;;;;;;;5.07;3.03;;;;;;;7.24;61.44;99707.00;5035389;28;20021;-75
2021/01/13 11:47:30;;;;;;;12.60;7.25;;;;;;;7.27;63.98;99701.97;5044035;28;20039;-75
2021/01/13 11:50:00;;;;;;;5.28;3.65;;;;;;;7.36;63.35;99703.13;5026233;28;20048;-74
2021/01/13 11:52:27;;;;;;;;;;;;;;;7.30;64.21;99703.78;5017048;28;20041;-71
2021/01/13 11:54:54;;;;;;;6.55;3.47;;;;;;;7.32;62.80;99698.72;5034679;28;19999;-74
2021/01/13 11:57:45;;;;;;;7.82;4.55;;;;;;;7.11;62.42;99661.13;4992906;28;20038;-74
2021/01/13 12:00:12;;;;;;;4.82;3.05;;;;;;;7.26;62.20;99713.06;4992954;28;20109;-75
2021/01/13 12:02:38;;;;;;;9.02;8.02;;;;;;;7.28;63.62;99708.00;4992414;28;20408;-75
2021/01/13 12:05:07;;;;;;;7.93;4.55;;;;;;;7.22;63.28;99710.31;4992631;28;20030;-75